Time;durP1;ratioP1;P1;durP2;ratioP2;P2;SDS_P1;SDS_P2;PMS_P1;PMS_P2;Temp;Humidity;BMP_temperature;BMP_pressure;BME280_temperature;BME280_humidity;BME280_pressure;Samples;Min_cycle;Max_cycle;Signal;HPM_P1;HPM_P2
2022/05/05 00:02:26;;;;;;;5.68;5.05;;;8.30;99.90;;;;;;5141490;27;20191;-74
2022/05/05 00:04:53;;;;;;;7.60;5.20;;;8.30;99.90;;;;;;5150244;27;20211;-72
2022/05/05 00:07:23;;;;;;;6.68;4.95;;;8.20;99.90;;;;;;5143670;27;20222;-72
2022/05/05 00:09:50;;;;;;;8.48;5.40;;;8.30;99.90;;;;;;5153258;27;20274;-73
2022/05/05 00:15:04;;;;;;;10.55;5.03;;;8.20;99.90;;;;;;5138000;28;20241;-74
2022/05/05 00:17:33;;;;;;;4.70;4.25;;;8.30;99.90;;;;;;5119768;28;20249;-73
2022/05/05 00:20:01;;;;;;;13.63;6.05;;;8.30;99.90;;;;;;5117045;28;20546;-72
2022/05/05 00:22:28;;;;;;;11.88;5.80;;;8.20;99.90;;;;;;5132443;27;20203;-72
2022/05/05 00:24:55;;;;;;;12.13;5.15;;;8.20;99.90;;;;;;5126281;27;20645;-72
2022/05/05 00:27:22;;;;;;;9.27;5.57;;;8.20;99.90;;;;;;5130419;27;20203;-72
2022/05/05 00:29:51;;;;;;;8.65;5.43;;;8.10;99.90;;;;;;5124634;27;20239;-73
2022/05/05 00:32:19;;;;;;;8.43;5.50;;;8.00;99.90;;;;;;5129591;27;20206;-72
2022/05/05 00:34:46;;;;;;;7.47;5.25;;;8.00;99.90;;;;;;5130811;27;20219;-72
2022/05/05 00:37:13;;;;;;;6.50;5.15;;;8.00;99.90;;;;;;5126684;27;20663;-72
2022/05/05 00:39:40;;;;;;;7.05;5.55;;;8.00;99.90;;;;;;5127515;27;20668;-72
2022/05/05 00:42:11;;;;;;;5.07;4.57;;;8.00;99.90;;;;;;5132656;27;20202;-72
2022/05/05 00:44:38;;;;;;;11.05;6.65;;;8.00;99.90;;;;;;5125442;27;20310;-72
2022/05/05 00:47:05;;;;;;;8.02;4.97;;;8.00;99.90;;;;;;5133508;27;20210;-73
2022/05/05 00:49:36;;;;;;;7.90;5.97;;;8.00;99.90;;;;;;5126933;27;20270;-72
2022/05/05 00:52:04;;;;;;;11.82;6.07;;;8.00;99.90;;;;;;5131159;27;20656;-72
2022/05/05 00:54:31;;;;;;;7.25;5.32;;;8.00;99.90;;;;;;5125892;27;20209;-73
2022/05/05 00:56:59;;;;;;;9.18;6.80;;;7.90;99.90;;;;;;5129762;27;20293;-72
2022/05/05 00:59:26;;;;;;;8.93;5.10;;;8.00;99.90;;;;;;5120047;27;20223;-73
2022/05/05 01:01:52;;;;;;;16.05;5.80;;;7.90;99.90;;;;;;5129251;27;20207;-72
2022/05/05 01:04:20;;;;;;;9.85;5.28;;;7.90;99.90;;;;;;5127958;27;20638;-72
2022/05/05 01:06:48;;;;;;;11.63;5.97;;;7.90;99.90;;;;;;5131230;27;20668;-72
2022/05/05 01:09:15;;;;;;;12.57;5.95;;;8.00;99.90;;;;;;5125851;27;20558;-74
2022/05/05 01:11:42;;;;;;;5.32;4.80;;;8.00;99.90;;;;;;5129282;27;20628;-72
2022/05/05 01:14:08;;;;;;;6.60;5.95;;;8.10;99.90;;;;;;5118311;27;20363;-72
2022/05/05 01:16:35;;;;;;;8.68;7.15;;;8.10;99.90;;;;;;5113711;28;20668;-72
2022/05/05 01:19:02;;;;;;;7.28;5.97;;;8.10;99.90;;;;;;5115692;27;20229;-72
2022/05/05 01:21:31;;;;;;;7.93;6.70;;;8.00;99.90;;;;;;5127120;27;20282;-72
2022/05/05 01:23:58;;;;;;;12.82;7.93;;;8.00;99.90;;;;;;5123078;27;20647;-71
2022/05/05 01:29:11;;;;;;;13.63;7.10;;;7.90;99.90;;;;;;5127460;27;20226;-71
2022/05/05 01:31:39;;;;;;;8.25;6.10;;;7.80;99.90;;;;;;5127310;27;20301;-72
2022/05/05 01:34:06;;;;;;;8.23;6.50;;;7.90;99.90;;;;;;5128425;27;20297;-73
2022/05/05 01:36:34;;;;;;;9.63;6.47;;;7.80;99.90;;;;;;5131051;27;20539;-73
2022/05/05 01:39:01;;;;;;;9.65;5.80;;;7.80;99.90;;;;;;5124995;27;20233;-73
2022/05/05 01:41:30;;;;;;;13.95;6.20;;;7.90;99.90;;;;;;5128602;27;20222;-72
2022/05/05 01:43:57;;;;;;;14.20;7.93;;;7.80;99.90;;;;;;5130400;27;20198;-73
2022/05/05 01:46:24;;;;;;;13.07;7.25;;;7.80;99.90;;;;;;5127481;27;20274;-72
2022/05/05 01:48:51;;;;;;;11.70;7.30;;;7.70;99.90;;;;;;5126584;27;20235;-72
2022/05/05 01:51:18;;;;;;;8.70;7.80;;;7.80;99.90;;;;;;5125980;27;20243;-72
2022/05/05 01:53:46;;;;;;;9.02;7.10;;;7.70;99.90;;;;;;5126534;27;20198;-73
2022/05/05 01:56:14;;;;;;;10.90;6.60;;;7.70;99.90;;;;;;5132363;27;20246;-71
2022/05/05 01:58:43;;;;;;;10.30;7.50;;;7.60;99.90;;;;;;5123868;27;20230;-72
2022/05/05 02:01:10;;;;;;;12.15;8.35;;;7.60;99.90;;;;;;5131535;27;20608;-71
2022/05/05 02:03:37;;;;;;;8.57;7.63;;;7.60;99.90;;;;;;5118668;27;20194;-71
2022/05/05 02:06:05;;;;;;;11.20;7.93;;;7.60;99.90;;;;;;5131063;27;20197;-72
2022/05/05 02:08:32;;;;;;;22.00;9.18;;;7.50;99.90;;;;;;5126581;27;20588;-72
2022/05/05 02:11:01;;;;;;;12.10;8.05;;;7.50;99.90;;;;;;5129682;27;20229;-72
2022/05/05 02:13:28;;;;;;;17.58;10.30;;;7.50;99.90;;;;;;5125747;27;20233;-72
2022/05/05 02:15:55;;;;;;;9.85;8.00;;;7.50;99.90;;;;;;5128267;27;20214;-72
2022/05/05 02:18:23;;;;;;;15.13;8.60;;;7.50;99.90;;;;;;5127160;27;20221;-74
2022/05/05 02:20:49;;;;;;;7.75;7.05;;;7.50;99.90;;;;;;5129376;27;20208;-74
2022/05/05 02:23:16;;;;;;;10.50;8.32;;;7.40;99.90;;;;;;5118476;27;20562;-72
2022/05/05 02:25:43;;;;;;;19.65;8.68;;;7.50;99.90;;;;;;5124235;27;20206;-73
2022/05/05 02:28:12;;;;;;;9.93;8.65;;;7.50;99.90;;;;;;5129502;27;20229;-71
2022/05/05 02:30:39;;;;;;;12.68;8.40;;;7.50;99.90;;;;;;5121302;27;20304;-71
2022/05/05 02:33:06;;;;;;;17.08;8.18;;;7.50;99.90;;;;;;5128926;27;20201;-71
2022/05/05 02:35:33;;;;;;;12.95;8.38;;;7.50;99.90;;;;;;5125657;28;20218;-73
2022/05/05 02:40:44;;;;;;;11.30;7.50;;;7.50;99.90;;;;;;5126479;28;20672;-71
2022/05/05 02:43:12;;;;;;;11.07;9.93;;;7.50;99.90;;;;;;5128214;28;20320;-73
2022/05/05 02:45:40;;;;;;;14.77;8.45;;;7.60;99.90;;;;;;5130493;28;20289;-71
2022/05/05 02:48:08;;;;;;;14.45;8.05;;;7.50;99.90;;;;;;5125740;27;20206;-72
2022/05/05 02:50:34;;;;;;;7.93;7.00;;;7.60;99.90;;;;;;5127114;27;20632;-72
2022/05/05 02:54:46;;;;;;;11.75;7.53;;;7.60;99.90;;;;;;5116168;28;20199;-72
2022/05/05 02:55:48;;;;;;;9.85;7.07;;;7.60;99.90;;;;;;5114029;28;20237;-73
2022/05/05 02:58:16;;;;;;;11.07;7.85;;;7.60;99.90;;;;;;5113724;28;20697;-71
2022/05/05 03:00:43;;;;;;;8.40;7.50;;;7.60;99.90;;;;;;5121422;28;20294;-73
2022/05/05 03:03:09;;;;;;;8.63;7.53;;;7.60;99.90;;;;;;5132698;27;20363;-72
2022/05/05 03:05:37;;;;;;;8.95;6.63;;;7.60;99.90;;;;;;5133955;27;20622;-71
2022/05/05 03:08:04;;;;;;;12.10;7.80;;;7.60;99.90;;;;;;5133953;27;20297;-71
2022/05/05 03:10:31;;;;;;;14.43;7.30;;;7.60;99.90;;;;;;5133708;28;20230;-72
2022/05/05 03:12:58;;;;;;;9.70;7.55;;;7.60;99.90;;;;;;5134791;27;20240;-72
2022/05/05 03:15:26;;;;;;;8.45;7.65;;;7.60;99.90;;;;;;5138279;27;20297;-72
2022/05/05 03:17:53;;;;;;;7.97;7.20;;;7.60;99.90;;;;;;5131712;27;20282;-71
2022/05/05 03:20:20;;;;;;;9.00;6.82;;;7.60;99.90;;;;;;5116976;28;20277;-72
2022/05/05 03:22:47;;;;;;;10.85;7.65;;;7.60;99.90;;;;;;5117699;27;20372;-71
2022/05/05 03:25:14;;;;;;;8.77;7.78;;;7.50;99.90;;;;;;5126823;27;20217;-71
2022/05/05 03:27:41;;;;;;;12.13;7.75;;;7.50;99.90;;;;;;5129990;27;20289;-71
2022/05/05 03:30:09;;;;;;;11.10;8.20;;;7.50;99.90;;;;;;5126699;27;20236;-72
2022/05/05 03:32:37;;;;;;;11.70;8.90;;;7.50;99.90;;;;;;5127946;27;20289;-72
2022/05/05 03:35:05;;;;;;;11.10;7.57;;;7.40;99.90;;;;;;5129395;27;20228;-72
2022/05/05 03:37:33;;;;;;;9.27;8.38;;;7.40;99.90;;;;;;5132395;27;20208;-72
2022/05/05 03:40:00;;;;;;;14.07;8.05;;;7.40;99.90;;;;;;5125029;27;20234;-72
2022/05/05 03:42:26;;;;;;;8.93;7.38;;;7.30;99.90;;;;;;5130686;27;20318;-72
2022/05/05 03:44:53;;;;;;;9.65;8.43;;;7.30;99.90;;;;;;5131397;27;20200;-72
2022/05/05 03:47:20;;;;;;;13.00;8.23;;;7.20;99.90;;;;;;5120584;27;20285;-72
2022/05/05 03:49:48;;;;;;;15.20;8.48;;;7.20;99.90;;;;;;5127667;27;20226;-71
2022/05/05 03:52:15;;;;;;;9.38;8.35;;;7.20;99.90;;;;;;5135493;27;20198;-72
2022/05/05 03:54:42;;;;;;;12.40;8.68;;;7.20;99.90;;;;;;5126659;27;20229;-72
2022/05/05 03:57:09;;;;;;;10.13;7.90;;;7.20;99.90;;;;;;5134201;27;20197;-72
2022/05/05 03:59:36;;;;;;;10.63;7.90;;;7.20;99.90;;;;;;5123687;27;20225;-71
2022/05/05 04:02:05;;;;;;;8.23;7.50;;;7.30;99.90;;;;;;5132797;27;20213;-72
2022/05/05 04:04:31;;;;;;;10.57;8.18;;;7.30;99.90;;;;;;5134576;27;20228;-72
2022/05/05 04:07:00;;;;;;;14.35;8.60;;;7.30;99.90;;;;;;5131963;27;20192;-71
2022/05/05 04:09:27;;;;;;;12.52;8.65;;;7.30;99.90;;;;;;5127019;27;20248;-71
2022/05/05 04:11:53;;;;;;;15.35;8.90;;;7.40;99.90;;;;;;5123089;27;20292;-72
2022/05/05 04:14:20;;;;;;;7.60;6.90;;;7.40;99.90;;;;;;5125904;27;20217;-72
2022/05/05 04:16:47;;;;;;;13.70;8.75;;;7.50;99.90;;;;;;5131380;27;20307;-71
2022/05/05 04:19:15;;;;;;;12.70;8.45;;;7.60;99.90;;;;;;5124472;27;20316;-70
2022/05/05 04:21:41;;;;;;;12.75;8.32;;;7.60;99.90;;;;;;5128830;27;20209;-72
2022/05/05 04:24:10;;;;;;;10.88;8.25;;;7.70;99.90;;;;;;5121609;27;20212;-72
2022/05/05 04:26:38;;;;;;;10.98;8.00;;;7.70;99.90;;;;;;5127996;27;20200;-72
2022/05/05 04:29:05;;;;;;;10.05;7.28;;;7.80;99.90;;;;;;5120234;27;20664;-71
2022/05/05 04:31:33;;;;;;;12.45;7.78;;;7.90;99.90;;;;;;5130795;27;20628;-73
2022/05/05 04:34:00;;;;;;;11.88;7.63;;;7.90;99.90;;;;;;5124878;27;20576;-72
2022/05/05 04:36:27;;;;;;;8.63;7.35;;;8.00;99.90;;;;;;5130224;27;20207;-72
2022/05/05 04:38:54;;;;;;;11.82;8.40;;;8.10;99.90;;;;;;5130550;27;20622;-72
2022/05/05 04:41:22;;;;;;;8.70;7.03;;;8.10;99.90;;;;;;5129034;27;20263;-71
2022/05/05 04:43:49;;;;;;;10.23;6.70;;;8.30;99.90;;;;;;5130888;27;20198;-72
2022/05/05 04:46:16;;;;;;;7.78;6.97;;;8.40;99.90;;;;;;5131667;27;20192;-72
2022/05/05 04:48:43;;;;;;;8.38;6.78;;;8.60;99.90;;;;;;5129725;27;20769;-72
2022/05/05 04:51:10;;;;;;;16.80;8.13;;;8.80;99.90;;;;;;5133910;27;20618;-72
2022/05/05 04:53:37;;;;;;;5.45;4.95;;;9.30;99.90;;;;;;5128269;27;20198;-71
2022/05/05 04:56:05;;;;;;;6.45;5.85;;;10.00;99.90;;;;;;5131970;27;20212;-73
2022/05/05 04:58:34;;;;;;;12.63;5.40;;;10.90;99.90;;;;;;5125549;27;20233;-72
2022/05/05 05:01:01;;;;;;;12.43;6.95;;;11.90;99.90;;;;;;5129017;27;20293;-74
2022/05/05 05:03:35;;;;;;;8.68;5.82;;;12.60;99.90;;;;;;5124336;27;20208;-72
2022/05/05 05:06:02;;;;;;;9.88;6.68;;;13.10;99.90;;;;;;5122034;27;20626;-73
2022/05/05 05:08:29;;;;;;;8.52;6.45;;;13.20;98.90;;;;;;5123926;27;20247;-74
2022/05/05 05:10:56;;;;;;;7.82;5.50;;;13.10;98.10;;;;;;5128827;27;20216;-73
2022/05/05 05:13:23;;;;;;;9.45;5.85;;;12.90;98.30;;;;;;5128855;27;20287;-72
2022/05/05 05:15:51;;;;;;;7.80;5.80;;;12.90;98.40;;;;;;5122204;27;20690;-72
2022/05/05 05:18:18;;;;;;;6.15;5.50;;;13.20;98.70;;;;;;5116075;27;20772;-72
2022/05/05 05:20:46;;;;;;;8.77;6.25;;;14.20;96.80;;;;;;5123500;27;20577;-73
2022/05/05 05:23:13;;;;;;;6.57;4.70;;;15.20;93.60;;;;;;5114346;28;20311;-72
2022/05/05 05:25:40;;;;;;;6.65;5.47;;;16.10;91.60;;;;;;5124029;27;20283;-74
2022/05/05 05:28:07;;;;;;;8.63;5.13;;;17.20;88.20;;;;;;5131038;27;20227;-73
2022/05/05 05:30:34;;;;;;;6.22;5.30;;;17.80;85.10;;;;;;5122077;27;20670;-74
2022/05/05 05:33:02;;;;;;;5.87;5.27;;;18.20;82.80;;;;;;5128894;27;20291;-72
2022/05/05 05:35:29;;;;;;;5.80;5.20;;;18.30;80.40;;;;;;5125561;27;20516;-71
2022/05/05 05:37:56;;;;;;;9.33;5.53;;;18.80;79.80;;;;;;5109720;27;20493;-73
2022/05/05 05:40:23;;;;;;;6.57;5.30;;;18.90;77.80;;;;;;5098626;28;20974;-72
2022/05/05 05:42:50;;;;;;;6.73;4.77;;;18.20;78.30;;;;;;5105656;28;20444;-71
2022/05/05 05:45:18;;;;;;;9.03;6.27;;;18.40;77.80;;;;;;5098924;27;20439;-71
2022/05/05 05:47:45;;;;;;;10.03;6.50;;;18.20;77.70;;;;;;5098384;28;20444;-72
2022/05/05 05:50:14;;;;;;;10.00;6.10;;;17.90;79.10;;;;;;5111257;28;20539;-70
2022/05/05 05:52:41;;;;;;;11.23;5.70;;;18.00;78.00;;;;;;5123841;27;20450;-71
2022/05/05 05:55:09;;;;;;;7.83;4.57;;;18.40;77.40;;;;;;5122639;27;20546;-73
2022/05/05 05:57:36;;;;;;;7.83;5.03;;;19.00;76.00;;;;;;5127808;27;20495;-72
2022/05/05 06:00:03;;;;;;;10.40;5.03;;;19.60;74.80;;;;;;5115633;27;20996;-71
2022/05/05 06:05:17;;;;;;;7.90;5.60;;;20.40;71.30;;;;;;5132676;27;20492;-72
2022/05/05 06:07:44;;;;;;;7.47;4.73;;;20.20;71.80;;;;;;5123062;27;20861;-72
2022/05/05 06:10:11;;;;;;;6.43;4.80;;;20.30;71.00;;;;;;5124599;27;20485;-71
2022/05/05 06:12:38;;;;;;;5.60;3.80;;;20.50;71.30;;;;;;5113526;28;20532;-71
2022/05/05 06:15:06;;;;;;;6.57;4.10;;;20.20;69.30;;;;;;5115258;28;21017;-71
2022/05/05 06:17:34;;;;;;;5.53;2.87;;;19.90;69.20;;;;;;5118630;27;20467;-72
2022/05/05 06:20:01;;;;;;;6.30;4.00;;;20.80;69.10;;;;;;5127893;27;20981;-71
2022/05/05 06:22:29;;;;;;;3.13;2.07;;;21.30;67.80;;;;;;5119329;27;20502;-71
2022/05/05 06:24:57;;;;;;;3.30;2.50;;;21.40;66.60;;;;;;5126088;27;20491;-72
2022/05/05 06:27:24;;;;;;;6.67;2.93;;;21.10;66.00;;;;;;5123225;27;20448;-71
2022/05/05 06:29:51;;;;;;;2.60;2.40;;;21.10;66.00;;;;;;5123948;27;20486;-72
2022/05/05 06:32:17;;;;;;;3.70;2.43;;;22.00;65.70;;;;;;5121499;27;20530;-73
2022/05/05 06:34:45;;;;;;;7.20;3.30;;;22.60;63.30;;;;;;5127423;27;20532;-72
2022/05/05 06:37:12;;;;;;;5.83;3.37;;;22.40;62.80;;;;;;5121394;27;20573;-72
2022/05/05 06:39:41;;;;;;;5.90;3.47;;;21.30;63.00;;;;;;5127573;27;20477;-72
2022/05/05 06:42:09;;;;;;;9.60;4.07;;;21.10;64.30;;;;;;5127446;27;20540;-72
2022/05/05 06:44:36;;;;;;;8.67;3.90;;;20.60;65.50;;;;;;5120030;27;20450;-74
2022/05/05 06:47:03;;;;;;;5.60;3.57;;;20.80;66.10;;;;;;5105716;27;20528;-74
2022/05/05 06:49:32;;;;;;;8.77;3.27;;;20.90;66.20;;;;;;5128144;27;20478;-74
2022/05/05 06:51:59;;;;;;;5.47;3.67;;;20.80;65.70;;;;;;5125339;27;20463;-73
2022/05/05 06:54:27;;;;;;;7.60;3.33;;;19.80;66.40;;;;;;5117153;28;20882;-73
2022/05/05 06:56:56;;;;;;;7.43;3.47;;;19.20;68.90;;;;;;5110656;28;20532;-72
2022/05/05 06:59:24;;;;;;;8.30;3.37;;;18.70;70.30;;;;;;5105665;28;20473;-73
2022/05/05 07:01:56;;;;;;;7.97;4.40;;;18.30;71.80;;;;;;5114095;28;20440;-74
2022/05/05 07:07:11;;;;;;;12.68;3.80;;;17.60;74.30;;;;;;5115753;28;20791;-74
2022/05/05 07:12:24;;;;;;;8.18;3.75;;;17.00;75.50;;;;;;5122749;27;20657;-73
2022/05/05 07:14:52;;;;;;;9.18;4.15;;;16.70;76.20;;;;;;5110207;27;20291;-74
2022/05/05 07:17:19;;;;;;;9.18;4.13;;;16.70;76.80;;;;;;5111291;28;20273;-72
2022/05/05 07:19:46;;;;;;;8.02;3.55;;;16.60;77.40;;;;;;5116536;28;20599;-74
2022/05/05 07:22:13;;;;;;;6.67;3.90;;;17.30;76.60;;;;;;5131021;27;20235;-73
2022/05/05 07:24:40;;;;;;;6.97;2.90;;;18.00;76.10;;;;;;5128976;27;20465;-74
2022/05/05 07:27:07;;;;;;;7.10;3.53;;;18.90;74.80;;;;;;5115005;27;20455;-74
2022/05/05 07:29:37;;;;;;;5.87;3.13;;;19.10;72.20;;;;;;5110528;28;20467;-74
2022/05/05 07:32:06;;;;;;;5.17;2.80;;;18.60;71.20;;;;;;5115389;28;20515;-75
2022/05/05 07:34:34;;;;;;;6.33;2.83;;;18.20;72.80;;;;;;5111674;28;20989;-74
2022/05/05 07:37:01;;;;;;;7.27;3.60;;;17.90;73.40;;;;;;5115116;28;20517;-74
2022/05/05 07:39:28;;;;;;;8.77;3.30;;;17.70;74.40;;;;;;5110627;28;20546;-74
2022/05/05 07:41:55;;;;;;;9.27;3.73;;;17.90;75.30;;;;;;5115012;27;20454;-74
2022/05/05 07:44:22;;;;;;;12.73;4.10;;;17.90;74.60;;;;;;5120416;28;20526;-73
2022/05/05 07:46:50;;;;;;;5.28;3.58;;;17.90;74.30;;;;;;5116882;27;20449;-75
2022/05/05 07:49:19;;;;;;;9.88;3.90;;;17.70;74.80;;;;;;5137559;28;20259;-74
2022/05/05 07:51:46;;;;;;;5.10;3.40;;;17.60;75.00;;;;;;5128907;28;20254;-75
2022/05/05 07:56:57;;;;;;;8.90;4.82;;;17.30;75.00;;;;;;5141228;27;20522;-74
2022/05/05 07:59:37;;;;;;;5.55;3.63;;;16.90;76.30;;;;;;5133621;28;20234;-75
2022/05/05 08:02:09;;;;;;;5.30;2.60;;;17.00;76.70;;;;;;5128114;27;20321;-75
2022/05/05 08:04:37;;;;;;;7.30;3.42;;;17.00;77.70;;;;;;5131726;27;20199;-75
2022/05/05 08:07:05;;;;;;;8.07;3.92;;;16.80;77.10;;;;;;5109347;27;20218;-75
2022/05/05 08:09:32;;;;;;;5.70;3.33;;;16.80;77.40;;;;;;5113891;27;20306;-76
2022/05/05 08:12:00;;;;;;;8.77;3.72;;;16.80;77.10;;;;;;5123597;27;20278;-74
2022/05/05 08:14:28;;;;;;;12.10;4.05;;;16.50;78.40;;;;;;5127834;27;20201;-73
2022/05/05 08:16:55;;;;;;;9.75;4.00;;;16.50;79.00;;;;;;5115672;27;20231;-75
2022/05/05 08:19:23;;;;;;;5.05;4.20;;;16.60;77.60;;;;;;5119344;27;20249;-74
2022/05/05 08:21:51;;;;;;;8.18;3.45;;;16.70;77.10;;;;;;5125069;27;20197;-74
2022/05/05 08:29:46;;;;;;;10.35;4.18;;;16.80;77.60;;;;;;5120605;27;20246;-77
2022/05/05 08:32:14;;;;;;;10.18;5.30;;;17.10;79.40;;;;;;5113995;28;20205;-75
2022/05/05 08:34:42;;;;;;;10.33;5.20;;;17.70;78.80;;;;;;5111408;27;20212;-75
2022/05/05 08:37:09;;;;;;;7.53;4.30;;;17.90;76.00;;;;;;5114307;28;20574;-73
2022/05/05 08:39:36;;;;;;;5.07;3.67;;;18.20;74.80;;;;;;5114652;27;20541;-75
2022/05/05 08:42:05;;;;;;;5.30;3.67;;;18.60;75.30;;;;;;5130814;27;20508;-75
2022/05/05 08:44:32;;;;;;;4.90;3.53;;;18.90;74.70;;;;;;5126851;27;20525;-75
2022/05/05 08:47:00;;;;;;;5.50;4.03;;;19.10;73.00;;;;;;5122911;27;20843;-74
2022/05/05 08:49:27;;;;;;;7.43;5.57;;;19.60;73.50;;;;;;5118523;27;20465;-75
2022/05/05 08:51:56;;;;;;;6.17;4.60;;;19.70;72.80;;;;;;5121340;27;20440;-75
2022/05/05 08:54:25;;;;;;;9.10;4.20;;;19.70;71.40;;;;;;5131583;27;20533;-73
2022/05/05 08:56:54;;;;;;;8.23;4.70;;;19.60;72.10;;;;;;5125672;27;20486;-74
2022/05/05 08:59:22;;;;;;;8.77;5.30;;;19.80;72.60;;;;;;5105653;28;20558;-73
2022/05/05 09:01:51;;;;;;;7.23;4.47;;;19.90;72.10;;;;;;5127385;27;20527;-73
2022/05/05 09:04:19;;;;;;;5.73;4.00;;;20.20;71.90;;;;;;5124736;27;20449;-72
2022/05/05 09:06:48;;;;;;;8.80;4.90;;;19.60;72.00;;;;;;5127002;27;20972;-73
2022/05/05 09:09:27;;;;;;;6.23;3.83;;;19.70;72.30;;;;;;5127357;27;20451;-74
2022/05/05 09:12:14;;;;;;;21.73;5.73;;;20.00;71.70;;;;;;5126458;27;20478;-75
2022/05/05 09:14:44;;;;;;;7.93;4.37;;;20.30;71.00;;;;;;5126227;27;20530;-74
2022/05/05 09:17:13;;;;;;;8.10;4.07;;;20.30;70.50;;;;;;5127945;27;20480;-75
2022/05/05 09:19:42;;;;;;;6.60;3.90;;;20.50;70.30;;;;;;5122933;27;20469;-73
2022/05/05 09:22:10;;;;;;;7.37;4.80;;;20.60;70.30;;;;;;5124869;27;20545;-73
2022/05/05 09:24:43;;;;;;;6.00;3.70;;;20.40;69.70;;;;;;5125013;27;20541;-71
2022/05/05 09:27:27;;;;;;;6.13;4.00;;;20.50;69.70;;;;;;5125692;27;20437;-75
2022/05/05 09:30:12;;;;;;;10.33;4.47;;;20.60;68.70;;;;;;5126665;27;20470;-73
2022/05/05 09:32:40;;;;;;;8.73;3.93;;;21.20;69.20;;;;;;5123278;27;20455;-74
2022/05/05 09:35:11;;;;;;;6.50;4.63;;;21.20;66.70;;;;;;5130560;27;20494;-74
2022/05/05 09:37:43;;;;;;;9.50;3.50;;;21.60;66.90;;;;;;5122396;27;20474;-73
2022/05/05 09:40:14;;;;;;;14.80;5.23;;;22.20;66.30;;;;;;5130101;27;20506;-74
2022/05/05 09:42:43;;;;;;;10.93;4.23;;;22.50;65.50;;;;;;5127974;27;20445;-73
2022/05/05 09:45:21;;;;;;;8.20;3.60;;;23.10;63.60;;;;;;5127977;27;20450;-74
2022/05/05 09:47:53;;;;;;;8.43;4.83;;;23.80;61.50;;;;;;5127002;27;20444;-74
2022/05/05 09:50:21;;;;;;;7.33;3.90;;;23.50;59.50;;;;;;5125899;27;20522;-74
2022/05/05 09:58:22;;;;;;;9.17;3.47;;;23.30;59.00;;;;;;5126290;27;20586;-75
2022/05/05 10:00:58;;;;;;;15.80;3.70;;;23.50;58.50;;;;;;5126980;27;20589;-74
2022/05/05 10:06:18;;;;;;;7.13;3.63;;;23.00;57.40;;;;;;5127442;27;20433;-74
2022/05/05 10:08:47;;;;;;;10.23;3.13;;;23.00;58.80;;;;;;5127554;27;20485;-75
2022/05/05 10:11:15;;;;;;;7.10;2.93;;;23.40;58.90;;;;;;5125849;27;20568;-75
2022/05/05 10:13:43;;;;;;;5.13;3.73;;;23.50;58.50;;;;;;5131752;27;20928;-74
2022/05/05 10:16:10;;;;;;;12.13;4.77;;;24.10;58.80;;;;;;5125723;27;20448;-73
2022/05/05 10:18:39;;;;;;;13.37;3.67;;;24.80;57.70;;;;;;5130178;27;20558;-73
2022/05/05 10:21:08;;;;;;;9.80;3.40;;;25.00;56.50;;;;;;5122234;27;20431;-74
2022/05/05 10:23:48;;;;;;;9.43;3.50;;;24.40;56.50;;;;;;5124552;27;20438;-73
2022/05/05 10:26:22;;;;;;;10.10;4.30;;;24.50;55.90;;;;;;5125080;27;20446;-75
2022/05/05 10:28:49;;;;;;;5.57;3.37;;;23.60;55.60;;;;;;5124934;27;20805;-74
2022/05/05 10:31:44;;;;;;;9.47;4.33;;;23.10;57.60;;;;;;5123483;27;20446;-75
2022/05/05 10:34:16;;;;;;;10.13;4.10;;;22.90;59.80;;;;;;5124825;27;20801;-74
2022/05/05 10:37:02;;;;;;;9.15;3.90;;;22.80;58.40;;;;;;5130818;27;20445;-74
2022/05/05 10:39:42;;;;;;;8.20;4.40;;;22.40;60.50;;;;;;5112812;28;20945;-75
2022/05/05 10:42:15;;;;;;;10.90;3.67;;;22.00;60.80;;;;;;5127440;28;20445;-74
2022/05/05 10:45:09;;;;;;;5.53;3.30;;;21.70;60.10;;;;;;5125159;28;20456;-75
2022/05/05 10:48:10;;;;;;;17.83;4.20;;;20.80;57.40;;;;;;5117125;28;20518;-73
2022/05/05 10:50:39;;;;;;;7.80;2.97;;;20.50;59.00;;;;;;5111182;28;20886;-74
2022/05/05 10:53:07;;;;;;;8.23;3.10;;;20.50;58.90;;;;;;5128235;28;20480;-74
2022/05/05 10:55:43;;;;;;;5.60;2.57;;;20.70;58.90;;;;;;5130171;28;20439;-74
2022/05/05 10:58:11;;;;;;;3.93;2.10;;;20.80;58.10;;;;;;5122466;28;20510;-72
2022/05/05 11:00:42;;;;;;;6.33;3.67;;;20.80;57.10;;;;;;5125118;28;20497;-74
2022/05/05 11:03:17;;;;;;;9.13;4.13;;;20.80;57.70;;;;;;5126724;28;20827;-77
2022/05/05 11:05:45;;;;;;;7.43;3.40;;;20.70;58.10;;;;;;5128787;28;20503;-73
2022/05/05 11:08:32;;;;;;;8.73;4.20;;;20.80;59.50;;;;;;5116748;28;20462;-74
2022/05/05 11:13:45;;;;;;;6.97;3.60;;;20.90;56.80;;;;;;5130486;28;20478;-74
2022/05/05 11:22:12;;;;;;;6.80;3.97;;;20.20;57.10;;;;;;5084321;28;20424;-74
2022/05/05 11:24:47;;;;;;;9.27;3.20;;;20.20;58.20;;;;;;5129339;28;20517;-73
2022/05/05 11:27:15;;;;;;;4.57;3.17;;;20.30;58.30;;;;;;5124591;28;20936;-74
2022/05/05 11:29:48;;;;;;;6.17;4.07;;;20.10;57.90;;;;;;5126648;27;20495;-75
2022/05/05 11:32:15;;;;;;;8.43;4.30;;;20.00;59.80;;;;;;5122755;28;20947;-73
2022/05/05 11:34:42;;;;;;;9.03;3.70;;;20.00;61.20;;;;;;5131692;27;20537;-75
2022/05/05 11:37:11;;;;;;;8.70;5.20;;;20.00;62.60;;;;;;5125649;27;20525;-73
2022/05/05 11:39:39;;;;;;;9.67;4.70;;;19.80;63.70;;;;;;5124644;27;20474;-76
2022/05/05 11:42:07;;;;;;;9.90;3.83;;;19.60;63.40;;;;;;5132492;27;20531;-75
2022/05/05 11:44:36;;;;;;;11.60;4.20;;;19.80;63.70;;;;;;5129813;27;20525;-74
2022/05/05 11:47:12;;;;;;;11.93;3.93;;;19.80;63.80;;;;;;5129306;27;20449;-74
2022/05/05 11:49:43;;;;;;;10.83;3.60;;;20.00;64.00;;;;;;5133249;27;20474;-75
2022/05/05 11:52:11;;;;;;;10.97;3.83;;;19.70;62.40;;;;;;5128253;27;20447;-74
2022/05/05 11:54:38;;;;;;;9.37;3.00;;;19.60;62.40;;;;;;5131795;27;20962;-74
2022/05/05 11:57:06;;;;;;;6.60;4.30;;;19.70;62.30;;;;;;5134287;27;20469;-73
2022/05/05 12:02:21;;;;;;;6.70;2.93;;;19.70;61.80;;;;;;5134335;27;20947;-74
2022/05/05 12:04:51;;;;;;;4.50;2.50;;;19.60;61.50;;;;;;5132259;27;20453;-73
2022/05/05 12:07:19;;;;;;;5.77;2.00;;;19.70;60.70;;;;;;5110906;27;20499;-75
2022/05/05 12:09:47;;;;;;;7.20;2.30;;;19.80;59.10;;;;;;5114444;27;20488;-75
2022/05/05 12:12:18;;;;;;;2.03;1.10;;;20.10;58.60;;;;;;5118820;27;20442;-76
2022/05/05 12:14:47;;;;;;;4.00;1.57;;;20.10;55.30;;;;;;5107668;27;20444;-75
2022/05/05 12:17:18;;;;;;;4.60;1.97;;;19.70;56.10;;;;;;5106102;28;20469;-75
2022/05/05 12:19:48;;;;;;;6.87;3.00;;;19.70;58.20;;;;;;5113941;28;20474;-75
2022/05/05 12:22:21;;;;;;;9.87;3.00;;;19.90;59.70;;;;;;5113602;28;20573;-75
2022/05/05 12:24:49;;;;;;;8.00;3.37;;;19.90;60.00;;;;;;5111015;28;20448;-76
2022/05/05 12:27:17;;;;;;;5.07;2.20;;;19.80;60.10;;;;;;5115415;28;20439;-78
2022/05/05 12:29:46;;;;;;;9.47;2.20;;;19.30;60.60;;;;;;5109214;28;20494;-75
2022/05/05 12:32:15;;;;;;;6.10;2.57;;;19.40;61.40;;;;;;5112011;28;20885;-76
2022/05/05 12:34:43;;;;;;;13.00;3.40;;;19.70;62.00;;;;;;5115120;28;20786;-75
2022/05/05 12:37:17;;;;;;;4.40;2.57;;;19.60;62.30;;;;;;5114835;28;20802;-75
2022/05/05 12:39:57;;;;;;;11.80;2.60;;;19.70;62.30;;;;;;5112164;27;20508;-75
2022/05/05 12:42:25;;;;;;;4.37;1.67;;;19.70;62.00;;;;;;5107026;27;20768;-74
2022/05/05 12:44:52;;;;;;;5.23;2.50;;;19.80;62.30;;;;;;5116732;27;20550;-76
2022/05/05 12:47:24;;;;;;;3.70;1.70;;;20.00;62.40;;;;;;5115937;28;20809;-73
2022/05/05 12:49:52;;;;;;;11.67;2.50;;;20.00;61.70;;;;;;5114344;28;20466;-75
2022/05/05 13:00:53;;;;;;;6.93;2.80;;;20.40;61.10;;;;;;5110785;28;20526;-76
2022/05/05 13:03:21;;;;;;;7.00;2.60;;;20.40;61.60;;;;;;5108968;27;20452;-76
2022/05/05 13:05:49;;;;;;;2.70;1.57;;;20.60;62.00;;;;;;5110186;28;20488;-75
2022/05/05 13:08:18;;;;;;;3.90;2.30;;;20.70;61.40;;;;;;5106340;28;20462;-75
2022/05/05 13:10:45;;;;;;;3.93;2.30;;;20.90;61.70;;;;;;5110897;28;20439;-75
2022/05/05 13:13:13;;;;;;;5.57;2.20;;;20.90;60.60;;;;;;5103950;28;20447;-76
2022/05/05 13:15:40;;;;;;;4.83;1.93;;;20.90;60.70;;;;;;5103309;28;20440;-75
2022/05/05 13:18:08;;;;;;;8.50;1.80;;;20.60;60.40;;;;;;5112871;28;20484;-74
2022/05/05 13:20:34;;;;;;;4.90;1.70;;;20.30;61.00;;;;;;5119463;27;20440;-74
2022/05/05 13:23:02;;;;;;;4.57;2.00;;;20.20;61.40;;;;;;5113049;27;20500;-74
2022/05/05 13:25:30;;;;;;;3.23;2.07;;;20.00;61.30;;;;;;5110031;28;20451;-73
2022/05/05 13:27:57;;;;;;;6.83;2.00;;;19.80;62.10;;;;;;5107982;28;20456;-74
2022/05/05 13:30:24;;;;;;;11.47;4.73;;;20.00;62.20;;;;;;5103670;28;20499;-76
2022/05/05 13:32:51;;;;;;;8.13;1.50;;;20.10;62.50;;;;;;5107603;28;20550;-73
2022/05/05 13:35:19;;;;;;;2.90;2.50;;;20.00;61.60;;;;;;5109183;28;20455;-73
2022/05/05 13:37:46;;;;;;;4.97;2.03;;;20.10;61.50;;;;;;5117592;27;20481;-75
2022/05/05 13:40:13;;;;;;;3.10;2.30;;;20.10;62.20;;;;;;5120468;27;20467;-74
2022/05/05 13:42:41;;;;;;;5.53;2.30;;;20.20;63.10;;;;;;5113193;28;20453;-75
2022/05/05 13:45:11;;;;;;;4.70;2.10;;;20.40;63.00;;;;;;5112714;28;20537;-74
2022/05/05 13:47:38;;;;;;;4.97;2.23;;;20.70;63.70;;;;;;5110158;27;20470;-73
2022/05/05 13:50:07;;;;;;;5.13;2.23;;;20.70;61.60;;;;;;5120537;27;20469;-73